Time;durP1;ratioP1;P1;durP2;ratioP2;P2;SDS_P1;SDS_P2;PMS_P1;PMS_P2;Temp;Humidity;BMP_temperature;BMP_pressure;BME280_temperature;BME280_humidity;BME280_pressure;Samples;Min_cycle;Max_cycle;Signal;HPM_P1;HPM_P2
2021/06/17 00:02:10;;;;;;;;;;;;;;;;;;5017300;28;20011;-76
2021/06/17 00:04:35;;;;;;;;;;;;;;;;;;5015919;28;19913;-76
2021/06/17 00:07:00;;;;;;;;;;;;;;;;;;5015828;28;19964;-76
2021/06/17 00:09:25;;;;;;;;;;;;;;;;;;5015831;28;19914;-76
2021/06/17 00:11:51;;;;;;;;;;;;;;;;;;5015914;28;19913;-76
2021/06/17 00:14:16;;;;;;;;;;;;;;;;;;5017269;28;19913;-76
2021/06/17 00:16:41;;;;;;;;;;;;;;;;;;5015599;28;19937;-76
2021/06/17 00:19:06;;;;;;;;;;;;;;;;;;5016886;28;19918;-76
2021/06/17 00:21:32;;;;;;;;;;;;;;;;;;5016056;28;19967;-76
2021/06/17 00:23:57;;;;;;;;;;;;;;;;;;5015755;28;19975;-76
2021/06/17 00:26:22;;;;;;;;;;;;;;;;;;5015479;28;20392;-76
2021/06/17 00:28:48;;;;;;;;;;;;;;;;;;5016740;28;20364;-76
2021/06/17 00:31:13;;;;;;;;;;;;;;;;;;5016769;28;19920;-76
2021/06/17 00:33:38;;;;;;;;;;;;;;;;;;5015407;28;19917;-77
2021/06/17 00:36:03;;;;;;;;;;;;;;;;;;5016632;28;19956;-76
2021/06/17 00:38:28;;;;;;;;;;;;;;;;;;5015181;28;20361;-76
2021/06/17 00:40:54;;;;;;;;;;;;;;;;;;5016535;28;19914;-76
2021/06/17 00:43:19;;;;;;;;;;;;;;;;;;5015207;28;19914;-76
2021/06/17 00:45:45;;;;;;;;;;;;;;;;;;5015345;28;19914;-77
2021/06/17 00:48:10;;;;;;;;;;;;;;;;;;5015120;28;19918;-76
2021/06/17 00:50:43;;;;;;;;;;;;;;;;;;5016162;28;19999;-76
2021/06/17 00:53:09;;;;;;;;;;;;;;;;;;5014926;28;19914;-76
2021/06/17 00:55:35;;;;;;;;;;;;;;;;;;5016166;28;19917;-76
2021/06/17 00:58:00;;;;;;;;;;;;;;;;;;5015069;28;19917;-76
2021/06/17 01:00:25;;;;;;;;;;;;;;;;;;4998319;28;19972;-76
2021/06/17 01:02:50;;;;;;;;;;;;;;;;;;5016035;28;19913;-76
2021/06/17 01:05:17;;;;;;;;;;;;;;;;;;5015997;28;20376;-76
2021/06/17 01:08:02;;;;;;;;;;;;;;;;;;5014750;28;19913;-76
2021/06/17 01:10:37;;;;;;;;;;;;;;;;;;5014869;28;19915;-76
2021/06/17 01:13:02;;;;;;;;;;;;;;;;;;5015841;28;19913;-76
2021/06/17 01:15:27;;;;;;;;;;;;;;;;;;5014521;28;19920;-76
2021/06/17 01:17:54;;;;;;;;;;;;;;;;;;4998064;28;19960;-76
2021/06/17 01:20:28;;;;;;;;;;;;;;;;;;5014594;28;19917;-76
2021/06/17 01:22:59;;;;;;;;;;;;;;;;;;5014527;28;19917;-76
2021/06/17 01:25:30;;;;;;;;;;;;;;;;;;4998067;28;19921;-76
2021/06/17 01:28:01;;;;;;;;;;;;;;;;;;5014262;28;19914;-76
2021/06/17 01:30:26;;;;;;;;;;;;;;;;;;4998491;28;19936;-76
2021/06/17 01:32:58;;;;;;;;;;;;;;;;;;5014300;28;20361;-76
2021/06/17 01:35:24;;;;;;;;;;;;;;;;;;5014236;28;19986;-76
2021/06/17 01:37:51;;;;;;;;;;;;;;;;;;5014120;28;20401;-77
2021/06/17 01:40:16;;;;;;;;;;;;;;;;;;5014155;28;20051;-77
2021/06/17 01:42:42;;;;;;;;;;;;;;;;;;4997818;28;20004;-76
2021/06/17 01:45:07;;;;;;;;;;;;;;;;;;5014061;28;20391;-76
2021/06/17 01:47:33;;;;;;;;;;;;;;;;;;5015046;28;19917;-76
2021/06/17 01:49:58;;;;;;;;;;;;;;;;;;4997600;28;19924;-76
2021/06/17 01:52:24;;;;;;;;;;;;;;;;;;5014065;28;20391;-76
2021/06/17 01:54:49;;;;;;;;;;;;;;;;;;5013898;28;19952;-76
2021/06/17 01:57:14;;;;;;;;;;;;;;;;;;5014956;28;19935;-76
2021/06/17 01:59:40;;;;;;;;;;;;;;;;;;5013922;28;19956;-76
2021/06/17 02:02:05;;;;;;;;;;;;;;;;;;5013758;28;20325;-76
2021/06/17 02:04:30;;;;;;;;;;;;;;;;;;5013352;28;19921;-76
2021/06/17 02:06:56;;;;;;;;;;;;;;;;;;5013668;28;19921;-76
2021/06/17 02:09:24;;;;;;;;;;;;;;;;;;5013640;28;19913;-76
2021/06/17 02:11:49;;;;;;;;;;;;;;;;;;5013945;28;19913;-76
2021/06/17 02:14:15;;;;;;;;;;;;;;;;;;5013632;28;19913;-76
2021/06/17 02:16:41;;;;;;;;;;;;;;;;;;5013477;28;19913;-76
2021/06/17 02:19:06;;;;;;;;;;;;;;;;;;5013521;28;20297;-76
2021/06/17 02:21:31;;;;;;;;;;;;;;;;;;5014610;28;19948;-76
2021/06/17 02:23:57;;;;;;;;;;;;;;;;;;5014522;28;20019;-76
2021/06/17 02:26:22;;;;;;;;;;;;;;;;;;5013709;28;19917;-76
2021/06/17 02:28:48;;;;;;;;;;;;;;;;;;5013246;28;19921;-76
2021/06/17 02:31:13;;;;;;;;;;;;;;;;;;5014412;28;20016;-76
2021/06/17 02:33:39;;;;;;;;;;;;;;;;;;5013190;28;20052;-76
2021/06/17 02:36:04;;;;;;;;;;;;;;;;;;5013513;28;19919;-77
2021/06/17 02:38:30;;;;;;;;;;;;;;;;;;5013371;28;20292;-76
2021/06/17 02:40:59;;;;;;;;;;;;;;;;;;5014287;28;19917;-76
2021/06/17 02:43:24;;;;;;;;;;;;;;;;;;5013077;28;19913;-75
2021/06/17 02:45:50;;;;;;;;;;;;;;;;;;4996564;28;19920;-77
2021/06/17 02:48:15;;;;;;;;;;;;;;;;;;5013715;28;19918;-76
2021/06/17 02:50:40;;;;;;;;;;;;;;;;;;5014151;28;19957;-76
2021/06/17 02:53:06;;;;;;;;;;;;;;;;;;5012903;28;20004;-76
2021/06/17 02:55:31;;;;;;;;;;;;;;;;;;4996459;28;19913;-76
2021/06/17 02:57:59;;;;;;;;;;;;;;;;;;5014182;28;20008;-76
2021/06/17 03:00:35;;;;;;;;;;;;;;;;;;5028886;22;19925;-83
2021/06/17 03:03:00;;;;;;;;;;;;;;;;;;5016255;28;19917;-83
2021/06/17 03:05:42;;;;;;;;;;;;;;;;;;5015961;28;19996;-83
2021/06/17 03:08:08;;;;;;;;;;;;;;;;;;5016797;28;19913;-83
2021/06/17 03:10:33;;;;;;;;;;;;;;;;;;5000596;28;19913;-83
2021/06/17 03:13:00;;;;;;;;;;;;;;;;;;5000438;28;19914;-83
2021/06/17 03:15:25;;;;;;;;;;;;;;;;;;5000411;28;19920;-83
2021/06/17 03:17:50;;;;;;;;;;;;;;;;;;5016149;28;19957;-83
2021/06/17 03:20:17;;;;;;;;;;;;;;;;;;5016218;28;20026;-83
2021/06/17 03:22:43;;;;;;;;;;;;;;;;;;5000218;28;19921;-83
2021/06/17 03:25:09;;;;;;;;;;;;;;;;;;5000107;28;19913;-83
2021/06/17 03:27:34;;;;;;;;;;;;;;;;;;5000420;28;19913;-83
2021/06/17 03:30:00;;;;;;;;;;;;;;;;;;5015592;28;20364;-83
2021/06/17 03:32:26;;;;;;;;;;;;;;;;;;4999174;28;19913;-83
2021/06/17 03:34:51;;;;;;;;;;;;;;;;;;4999134;28;19917;-83
2021/06/17 03:37:17;;;;;;;;;;;;;;;;;;4999151;28;20019;-83
2021/06/17 03:39:43;;;;;;;;;;;;;;;;;;4999636;28;19918;-83
2021/06/17 03:42:09;;;;;;;;;;;;;;;;;;4998504;28;20329;-83
2021/06/17 03:44:34;;;;;;;;;;;;;;;;;;5017170;28;19925;-83
2021/06/17 03:46:59;;;;;;;;;;;;;;;;;;5016369;28;19913;-83
2021/06/17 03:49:24;;;;;;;;;;;;;;;;;;5000659;28;19960;-83
2021/06/17 03:51:50;;;;;;;;;;;;;;;;;;5000365;28;19972;-83
2021/06/17 03:54:23;;;;;;;;;;;;;;;;;;5000538;28;19913;-83
2021/06/17 03:56:49;;;;;;;;;;;;;;;;;;5016054;28;20004;-83
2021/06/17 03:59:14;;;;;;;;;;;;;;;;;;5000592;28;20360;-83
2021/06/17 04:01:39;;;;;;;;;;;;;;;;;;5016424;28;20380;-81
2021/06/17 04:04:05;;;;;;;;;;;;;;;;;;5000199;28;19913;-82
2021/06/17 04:06:30;;;;;;;;;;;;;;;;;;5000128;28;19913;-81
2021/06/17 04:08:55;;;;;;;;;;;;;;;;;;5019971;28;19913;-82
2021/06/17 04:11:20;;;;;;;;;;;;;;;;;;5003966;28;19917;-82
2021/06/17 04:13:46;;;;;;;;;;;;;;;;;;5019371;28;19959;-82
2021/06/17 04:16:22;;;;;;;;;;;;;;;;;;5018713;28;19975;-81
2021/06/17 04:18:47;;;;;;;;;;;;;;;;;;5016824;28;20008;-81
2021/06/17 04:21:12;;;;;;;;;;;;;;;;;;5020685;28;19960;-82
2021/06/17 04:23:38;;;;;;;;;;;;;;;;;;5005170;28;20022;-82
2021/06/17 04:26:03;;;;;;;;;;;;;;;;;;5021090;28;19913;-82
2021/06/17 04:28:30;;;;;;;;;;;;;;;;;;5026079;28;20402;-82
2021/06/17 04:30:56;;;;;;;;;;;;;;;;;;5027258;28;19920;-81
2021/06/17 04:33:22;;;;;;;;;;;;;;;;;;5027341;28;20023;-81
2021/06/17 04:35:48;;;;;;;;;;;;;;;;;;5023798;28;20365;-82
2021/06/17 04:38:16;;;;;;;;;;;;;;;;;;5023081;28;19921;-82
2021/06/17 04:40:42;;;;;;;;;;;;;;;;;;5022758;28;19918;-82
2021/06/17 04:43:08;;;;;;;;;;;;;;;;;;5006261;28;20299;-82
2021/06/17 04:45:33;;;;;;;;;;;;;;;;;;5023748;28;20016;-82
2021/06/17 04:48:00;;;;;;;;;;;;;;;;;;5006828;28;19959;-82
2021/06/17 04:50:25;;;;;;;;;;;;;;;;;;5006882;28;19996;-82
2021/06/17 04:52:50;;;;;;;;;;;;;;;;;;5006812;28;20387;-82
2021/06/17 04:55:16;;;;;;;;;;;;;;;;;;5023647;28;19921;-82
2021/06/17 04:57:41;;;;;;;;;;;;;;;;;;5006357;28;19913;-82
2021/06/17 05:00:06;;;;;;;;;;;;;;;;;;5006119;28;19925;-82
2021/06/17 05:02:32;;;;;;;;;;;;;;;;;;5006524;28;19917;-82
2021/06/17 05:04:57;;;;;;;;;;;;;;;;;;5007126;28;19921;-82
2021/06/17 05:07:28;;;;;;;;;;;;;;;;;;5022378;28;20292;-82
2021/06/17 05:12:37;;;;;;;;;;;;;;;;;;5023371;28;19921;-82
2021/06/17 05:15:03;;;;;;;;;;;;;;;;;;5020408;28;19918;-82
2021/06/17 05:17:30;;;;;;;;;;;;;;;;;;5019289;28;19914;-81
2021/06/17 05:19:55;;;;;;;;;;;;;;;;;;5019912;28;20390;-82
2021/06/17 05:22:20;;;;;;;;;;;;;;;;;;5020466;28;19949;-82
2021/06/17 05:24:46;;;;;;;;;;;;;;;;;;5020291;28;19936;-82
2021/06/17 05:27:11;;;;;;;;;;;;;;;;;;5019345;28;20551;-81
2021/06/17 05:29:36;;;;;;;;;;;;;;;;;;5004236;28;19913;-82
2021/06/17 05:32:01;;;;;;;;;;;;;;;;;;5003362;28;19983;-82
2021/06/17 05:34:27;;;;;;;;;;;;;;;;;;5019771;28;19956;-82
2021/06/17 05:36:52;;;;;;;;;;;;;;;;;;5003956;28;20312;-82
2021/06/17 05:39:17;;;;;;;;;;;;;;;;;;5004201;28;19918;-82
2021/06/17 05:41:43;;;;;;;;;;;;;;;;;;5005709;28;19946;-81
2021/06/17 05:44:08;;;;;;;;;;;;;;;;;;5021590;28;19924;-82
2021/06/17 05:46:36;;;;;;;;;;;;;;;;;;5021140;28;20051;-82
2021/06/17 05:49:02;;;;;;;;;;;;;;;;;;5021519;28;19913;-82
2021/06/17 05:51:27;;;;;;;;;;;;;;;;;;5021531;28;19937;-82
2021/06/17 05:53:52;;;;;;;;;;;;;;;;;;5005987;28;19914;-82
2021/06/17 05:56:19;;;;;;;;;;;;;;;;;;5005729;28;19913;-82
2021/06/17 05:58:44;;;;;;;;;;;;;;;;;;5023277;28;19932;-82
2021/06/17 06:01:09;;;;;;;;;;;;;;;;;;5006072;28;19922;-82
2021/06/17 06:03:34;;;;;;;;;;;;;;;;;;5021084;28;19914;-79
2021/06/17 06:06:00;;;;;;;;;;;;;;;;;;5021766;28;19914;-81
2021/06/17 06:08:25;;;;;;;;;;;;;;;;;;5024233;28;20007;-81
2021/06/17 06:10:50;;;;;;;;;;;;;;;;;;5024235;28;19936;-81
2021/06/17 06:13:15;;;;;;;;;;;;;;;;;;5023868;28;19914;-81
2021/06/17 06:15:41;;;;;;;;;;;;;;;;;;5023574;28;19913;-81
2021/06/17 06:18:06;;;;;;;;;;;;;;;;;;5023566;28;20363;-81
2021/06/17 06:20:32;;;;;;;;;;;;;;;;;;5006806;28;19937;-81
2021/06/17 06:22:58;;;;;;;;;;;;;;;;;;5007824;28;19921;-81
2021/06/17 06:25:23;;;;;;;;;;;;;;;;;;5021889;28;19917;-82
2021/06/17 06:27:48;;;;;;;;;;;;;;;;;;5002961;28;20262;-82
2021/06/17 06:30:13;;;;;;;;;;;;;;;;;;5019863;28;19898;-81
2021/06/17 06:32:38;;;;;;;;;;;;;;;;;;5002688;28;19968;-81
2021/06/17 06:35:04;;;;;;;;;;;;;;;;;;5002685;28;19913;-81
2021/06/17 06:37:30;;;;;;;;;;;;;;;;;;5005237;28;19963;-81
2021/06/17 06:39:55;;;;;;;;;;;;;;;;;;5019983;28;19967;-81
2021/06/17 06:42:20;;;;;;;;;;;;;;;;;;5003774;28;20372;-81
2021/06/17 06:44:45;;;;;;;;;;;;;;;;;;5021661;28;19918;-81
2021/06/17 06:47:11;;;;;;;;;;;;;;;;;;5018957;28;19918;-81
2021/06/17 06:49:36;;;;;;;;;;;;;;;;;;5003018;28;19920;-81
2021/06/17 06:52:02;;;;;;;;;;;;;;;;;;5019501;28;19924;-81
2021/06/17 06:54:27;;;;;;;;;;;;;;;;;;5002434;28;19913;-81
2021/06/17 06:56:52;;;;;;;;;;;;;;;;;;5003167;28;19914;-81
2021/06/17 06:59:17;;;;;;;;;;;;;;;;;;5019172;28;19925;-81
2021/06/17 07:01:43;;;;;;;;;;;;;;;;;;5003240;28;19917;-81
2021/06/17 07:04:08;;;;;;;;;;;;;;;;;;5019270;28;19914;-81
2021/06/17 07:06:34;;;;;;;;;;;;;;;;;;5002549;28;20372;-81
2021/06/17 07:08:59;;;;;;;;;;;;;;;;;;5019655;28;19960;-81
2021/06/17 07:11:24;;;;;;;;;;;;;;;;;;5019160;28;19914;-81
2021/06/17 07:13:49;;;;;;;;;;;;;;;;;;5003560;28;19936;-81
2021/06/17 07:16:14;;;;;;;;;;;;;;;;;;5003579;28;20380;-81
2021/06/17 07:18:40;;;;;;;;;;;;;;;;;;5002819;28;19920;-81
2021/06/17 07:21:05;;;;;;;;;;;;;;;;;;5002240;28;19923;-81
2021/06/17 07:23:32;;;;;;;;;;;;;;;;;;5002408;28;19913;-81
2021/06/17 07:25:58;;;;;;;;;;;;;;;;;;5003147;28;19937;-81
2021/06/17 07:28:23;;;;;;;;;;;;;;;;;;5019136;28;19921;-81
2021/06/17 07:30:48;;;;;;;;;;;;;;;;;;5002636;28;19913;-81
2021/06/17 07:33:13;;;;;;;;;;;;;;;;;;5002537;28;19924;-81
2021/06/17 07:35:39;;;;;;;;;;;;;;;;;;5001998;28;19920;-81
2021/06/17 07:38:04;;;;;;;;;;;;;;;;;;5003099;28;19936;-81
2021/06/17 07:40:29;;;;;;;;;;;;;;;;;;5001508;28;20361;-81
2021/06/17 07:42:54;;;;;;;;;;;;;;;;;;5018823;28;20025;-81
2021/06/17 07:45:19;;;;;;;;;;;;;;;;;;5018884;28;19945;-81
2021/06/17 07:47:45;;;;;;;;;;;;;;;;;;5018282;28;19918;-81
2021/06/17 07:50:10;;;;;;;;;;;;;;;;;;5018350;28;19925;-81
2021/06/17 07:52:35;;;;;;;;;;;;;;;;;;5002950;28;20293;-81
2021/06/17 07:55:01;;;;;;;;;;;;;;;;;;5018746;28;19913;-81
2021/06/17 07:57:26;;;;;;;;;;;;;;;;;;5019039;28;19914;-81
2021/06/17 07:59:51;;;;;;;;;;;;;;;;;;5018086;28;19924;-81
2021/06/17 08:02:16;;;;;;;;;;;;;;;;;;5004298;28;19914;-81
2021/06/17 08:04:42;;;;;;;;;;;;;;;;;;5006433;28;20015;-81
2021/06/17 08:07:07;;;;;;;;;;;;;;;;;;5005746;28;19920;-81
2021/06/17 08:09:33;;;;;;;;;;;;;;;;;;5006212;28;19917;-81
2021/06/17 08:11:58;;;;;;;;;;;;;;;;;;5005050;28;19914;-82
2021/06/17 08:14:28;;;;;;;;;;;;;;;;;;5006622;28;19921;-81
2021/06/17 08:16:54;;;;;;;;;;;;;;;;;;5006799;28;19914;-81
2021/06/17 08:19:26;;;;;;;;;;;;;;;;;;5005998;28;20284;-81
2021/06/17 08:21:51;;;;;;;;;;;;;;;;;;5006264;28;19949;-81
2021/06/17 08:24:16;;;;;;;;;;;;;;;;;;5005385;28;20372;-81
2021/06/17 08:26:41;;;;;;;;;;;;;;;;;;5021330;28;19924;-81
2021/06/17 08:29:07;;;;;;;;;;;;;;;;;;5005333;28;19913;-81
2021/06/17 08:31:32;;;;;;;;;;;;;;;;;;5005442;28;20398;-81
2021/06/17 08:33:57;;;;;;;;;;;;;;;;;;5021972;28;19921;-81
2021/06/17 08:36:22;;;;;;;;;;;;;;;;;;5005449;28;19913;-81
2021/06/17 08:38:47;;;;;;;;;;;;;;;;;;5004649;28;19913;-81
2021/06/17 08:41:13;;;;;;;;;;;;;;;;;;5020610;28;20387;-81
2021/06/17 08:43:38;;;;;;;;;;;;;;;;;;5022296;28;19913;-81
2021/06/17 08:46:03;;;;;;;;;;;;;;;;;;5022188;28;19914;-81
2021/06/17 08:48:29;;;;;;;;;;;;;;;;;;5022410;28;19917;-82
2021/06/17 08:50:54;;;;;;;;;;;;;;;;;;5004886;28;19936;-81
2021/06/17 08:53:20;;;;;;;;;;;;;;;;;;5004620;28;20000;-81
2021/06/17 08:55:45;;;;;;;;;;;;;;;;;;5021702;28;20376;-81
2021/06/17 08:58:11;;;;;;;;;;;;;;;;;;5005086;28;19913;-81
2021/06/17 09:00:39;;;;;;;;;;;;;;;;;;5035134;22;19988;-76
2021/06/17 09:03:06;;;;;;;;;;;;;;;;;;4995412;28;20315;-75
2021/06/17 09:05:32;;;;;;;;;;;;;;;;;;4995339;28;20387;-75
2021/06/17 09:07:57;;;;;;;;;;;;;;;;;;4995273;28;19913;-75
2021/06/17 09:10:22;;;;;;;;;;;;;;;;;;4996462;28;20359;-75
2021/06/17 09:12:48;;;;;;;;;;;;;;;;;;4996155;28;19914;-75
2021/06/17 09:15:14;;;;;;;;;;;;;;;;;;4995115;28;19914;-76
2021/06/17 09:17:39;;;;;;;;;;;;;;;;;;4995092;28;19914;-75
2021/06/17 09:20:05;;;;;;;;;;;;;;;;;;4996140;28;19918;-75
2021/06/17 09:22:30;;;;;;;;;;;;;;;;;;4996124;28;20299;-75
2021/06/17 09:24:56;;;;;;;;;;;;;;;;;;4978704;28;19918;-75
2021/06/17 09:27:32;;;;;;;;;;;;;;;;;;4978816;28;19914;-75
2021/06/17 09:30:09;;;;;;;;;;;;;;;;;;4996032;28;19959;-75
2021/06/17 09:32:34;;;;;;;;;;;;;;;;;;4995867;28;20423;-75
2021/06/17 09:35:00;;;;;;;;;;;;;;;;;;4996071;28;19914;-75
2021/06/17 09:37:35;;;;;;;;;;;;;;;;;;4996013;28;19913;-75
2021/06/17 09:40:19;;;;;;;;;;;;;;;;;;4994787;28;19918;-75
2021/06/17 09:42:44;;;;;;;;;;;;;;;;;;4995940;28;19920;-75
2021/06/17 09:45:15;;;;;;;;;;;;;;;;;;4994564;28;19918;-75
2021/06/17 09:47:44;;;;;;;;;;;;;;;;;;4995645;28;19920;-75
2021/06/17 09:50:19;;;;;;;;;;;;;;;;;;4995612;28;19914;-75
2021/06/17 09:52:45;;;;;;;;;;;;;;;;;;4994557;28;19964;-75
2021/06/17 09:55:10;;;;;;;;;;;;;;;;;;4994412;28;19921;-75
2021/06/17 09:57:38;;;;;;;;;;;;;;;;;;4995377;28;19921;-75
2021/06/17 10:00:10;;;;;;;;;;;;;;;;;;4994245;28;19918;-75
2021/06/17 10:02:36;;;;;;;;;;;;;;;;;;4977916;28;20324;-75
2021/06/17 10:05:16;;;;;;;;;;;;;;;;;;4994355;28;19914;-75
2021/06/17 10:07:42;;;;;;;;;;;;;;;;;;4994173;28;19939;-75
2021/06/17 10:10:07;;;;;;;;;;;;;;;;;;4994054;28;20044;-75
2021/06/17 10:12:33;;;;;;;;;;;;;;;;;;4977830;28;19914;-75
2021/06/17 10:15:01;;;;;;;;;;;;;;;;;;4977731;28;20365;-75
2021/06/17 10:17:26;;;;;;;;;;;;;;;;;;4994044;28;19914;-75
2021/06/17 10:19:53;;;;;;;;;;;;;;;;;;4995003;28;19925;-75
2021/06/17 10:22:22;;;;;;;;;;;;;;;;;;4977598;28;19914;-75
2021/06/17 10:24:48;;;;;;;;;;;;;;;;;;4994605;28;20357;-75
2021/06/17 10:27:13;;;;;;;;;;;;;;;;;;4977443;28;19914;-75
2021/06/17 10:29:42;;;;;;;;;;;;;;;;;;4993730;28;19960;-75
2021/06/17 10:32:09;;;;;;;;;;;;;;;;;;4994859;28;19914;-75
2021/06/17 10:34:37;;;;;;;;;;;;;;;;;;4977387;28;19914;-76
2021/06/17 10:37:06;;;;;;;;;;;;;;;;;;4993540;28;19977;-75
2021/06/17 10:39:36;;;;;;;;;;;;;;;;;;4992578;28;19928;-76
2021/06/17 10:42:04;;;;;;;;;;;;;;;;;;4989901;28;19922;-76
2021/06/17 10:44:36;;;;;;;;;;;;;;;;;;4991417;28;20300;-77
2021/06/17 10:47:02;;;;;;;;;;;;;;;;;;4990673;28;19918;-77
2021/06/17 10:49:40;;;;;;;;;;;;;;;;;;4990792;28;19936;-77
2021/06/17 10:52:24;;;;;;;;;;;;;;;;;;4992711;28;20340;-78
2021/06/17 10:54:59;;;;;;;;;;;;;;;;;;4991569;28;19933;-78
2021/06/17 11:00:30;;;;;;;;;;;;;;;;;;4993027;28;19965;-77
2021/06/17 11:02:58;;;;;;;;;;;;;;;;;;4990194;28;20012;-77
2021/06/17 11:05:33;;;;;;;;;;;;;;;;;;4991215;28;19921;-77
2021/06/17 11:08:19;;;;;;;;;;;;;;;;;;4989985;28;20000;-77
2021/06/17 11:10:48;;;;;;;;;;;;;;;;;;4990416;28;19918;-77
2021/06/17 11:13:32;;;;;;;;;;;;;;;;;;4990351;28;19917;-77
2021/06/17 11:16:03;;;;;;;;;;;;;;;;;;4989423;28;19929;-77
2021/06/17 11:19:04;;;;;;;;;;;;;;;;;;4990885;28;20000;-76
2021/06/17 11:21:26;;;;;;;;;;;;;;;;;;4990602;28;19922;-76
2021/06/17 11:23:56;;;;;;;;;;;;;;;;;;4989512;28;19980;-77
2021/06/17 11:26:47;;;;;;;;;;;;;;;;;;4973309;28;19920;-77
2021/06/17 11:29:19;;;;;;;;;;;;;;;;;;4990059;28;19917;-77
2021/06/17 11:31:46;;;;;;;;;;;;;;;;;;4973302;28;20352;-76
2021/06/17 11:34:11;;;;;;;;;;;;;;;;;;4989284;28;19922;-77
2021/06/17 11:36:49;;;;;;;;;;;;;;;;;;4992034;28;20447;-76
2021/06/17 11:39:25;;;;;;;;;;;;;;;;;;4992800;28;19937;-76
2021/06/17 11:41:51;;;;;;;;;;;;;;;;;;4990718;28;19921;-75
2021/06/17 11:44:22;;;;;;;;;;;;;;;;;;4989040;28;19996;-75
2021/06/17 11:46:50;;;;;;;;;;;;;;;;;;4973974;28;19914;-75
2021/06/17 11:49:16;;;;;;;;;;;;;;;;;;4975229;28;20451;-75
2021/06/17 11:51:54;;;;;;;;;;;;;;;;;;4973672;28;19950;-75
2021/06/17 11:54:21;;;;;;;;;;;;;;;;;;4974151;28;20004;-75
2021/06/17 11:56:47;;;;;;;;;;;;;;;;;;4973690;28;20061;-75
2021/06/17 11:59:19;;;;;;;;;;;;;;;;;;4973801;28;19918;-74
2021/06/17 12:02:03;;;;;;;;;;;;;;;;;;4973755;28;19926;-75
2021/06/17 12:04:38;;;;;;;;;;;;;;;;;;4982993;28;19962;-77
2021/06/17 12:07:04;;;;;;;;;;;;;;;;;;4976856;28;19913;-77
2021/06/17 12:09:29;;;;;;;;;;;;;;;;;;4993342;28;19972;-77
2021/06/17 12:12:10;;;;;;;;;;;;;;;;;;4997443;28;19973;-76
2021/06/17 12:14:42;;;;;;;;;;;;;;;;;;4997470;28;19968;-76
2021/06/17 12:17:07;;;;;;;;;;;;;;;;;;4996262;28;19925;-76
2021/06/17 12:19:32;;;;;;;;;;;;;;;;;;4997451;28;19918;-76
2021/06/17 12:22:05;;;;;;;;;;;;;;;;;;4979904;28;20466;-77
2021/06/17 12:24:30;;;;;;;;;;;;;;;;;;4996208;28;19953;-76
2021/06/17 12:26:55;;;;;;;;;;;;;;;;;;4995958;28;19956;-76
2021/06/17 12:29:21;;;;;;;;;;;;;;;;;;4979719;28;19914;-76
2021/06/17 12:31:49;;;;;;;;;;;;;;;;;;4979745;28;19914;-76
2021/06/17 12:34:19;;;;;;;;;;;;;;;;;;4996238;28;20013;-77
2021/06/17 12:36:44;;;;;;;;;;;;;;;;;;4996695;28;20309;-77
2021/06/17 12:39:16;;;;;;;;;;;;;;;;;;4979450;28;19918;-76
2021/06/17 12:41:47;;;;;;;;;;;;;;;;;;4986299;28;19913;-76
2021/06/17 12:44:25;;;;;;;;;;;;;;;;;;4979734;28;19971;-76
2021/06/17 12:46:54;;;;;;;;;;;;;;;;;;4978752;28;20359;-77
2021/06/17 12:52:08;;;;;;;;;;;;;;;;;;4997147;28;19920;-77
2021/06/17 12:54:34;;;;;;;;;;;;;;;;;;4995752;28;19914;-76
2021/06/17 12:57:03;;;;;;;;;;;;;;;;;;4995380;28;19972;-76
2021/06/17 12:59:45;;;;;;;;;;;;;;;;;;4979672;28;19961;-77
2021/06/17 13:02:11;;;;;;;;;;;;;;;;;;4996500;28;19924;-76
2021/06/17 13:04:36;;;;;;;;;;;;;;;;;;4995368;28;19914;-76
2021/06/17 13:07:11;;;;;;;;;;;;;;;;;;4995416;28;19968;-76
2021/06/17 13:09:37;;;;;;;;;;;;;;;;;;4979139;28;20407;-77
2021/06/17 13:12:20;;;;;;;;;;;;;;;;;;4979049;28;19914;-76
2021/06/17 13:14:59;;;;;;;;;;;;;;;;;;4995319;28;19914;-76
2021/06/17 13:17:24;;;;;;;;;;;;;;;;;;4995075;28;19914;-76
2021/06/17 13:19:50;;;;;;;;;;;;;;;;;;4996349;28;19917;-76
2021/06/17 13:22:15;;;;;;;;;;;;;;;;;;4995396;28;19919;-76
2021/06/17 13:24:41;;;;;;;;;;;;;;;;;;4996235;28;19920;-76
2021/06/17 13:27:09;;;;;;;;;;;;;;;;;;4996071;28;20016;-76
2021/06/17 13:29:35;;;;;;;;;;;;;;;;;;4978690;28;20392;-76
2021/06/17 13:32:00;;;;;;;;;;;;;;;;;;4978590;28;19917;-76
2021/06/17 13:34:25;;;;;;;;;;;;;;;;;;4996444;28;19968;-76
2021/06/17 13:36:50;;;;;;;;;;;;;;;;;;4994716;28;19918;-76
2021/06/17 13:39:16;;;;;;;;;;;;;;;;;;4978335;28;19924;-76
2021/06/17 13:41:41;;;;;;;;;;;;;;;;;;4994842;28;19913;-76
2021/06/17 13:44:07;;;;;;;;;;;;;;;;;;4994926;28;19917;-76
2021/06/17 13:46:32;;;;;;;;;;;;;;;;;;4978351;28;19914;-77
2021/06/17 13:48:57;;;;;;;;;;;;;;;;;;4995655;28;20369;-77
2021/06/17 13:51:22;;;;;;;;;;;;;;;;;;4994587;28;19968;-77
2021/06/17 13:53:47;;;;;;;;;;;;;;;;;;4994310;28;19969;-76
2021/06/17 13:56:13;;;;;;;;;;;;;;;;;;4994318;28;19913;-76
2021/06/17 13:58:38;;;;;;;;;;;;;;;;;;4993524;28;19960;-76
2021/06/17 14:01:03;;;;;;;;;;;;;;;;;;4993635;28;19922;-76
2021/06/17 14:03:30;;;;;;;;;;;;;;;;;;4989825;28;19920;-77
2021/06/17 14:05:55;;;;;;;;;;;;;;;;;;4990538;28;19914;-76
2021/06/17 14:08:20;;;;;;;;;;;;;;;;;;4991835;28;19918;-76
2021/06/17 14:10:45;;;;;;;;;;;;;;;;;;4990609;28;19921;-76
2021/06/17 14:13:11;;;;;;;;;;;;;;;;;;4990475;28;20001;-76
2021/06/17 14:15:36;;;;;;;;;;;;;;;;;;4973677;28;19925;-76
2021/06/17 14:18:01;;;;;;;;;;;;;;;;;;4990583;28;19924;-76
2021/06/17 14:20:27;;;;;;;;;;;;;;;;;;4991685;28;19926;-76
2021/06/17 14:22:53;;;;;;;;;;;;;;;;;;4991755;28;20278;-75
2021/06/17 14:25:18;;;;;;;;;;;;;;;;;;4990146;28;19924;-76
2021/06/17 14:27:44;;;;;;;;;;;;;;;;;;4989837;28;19921;-77
2021/06/17 14:30:09;;;;;;;;;;;;;;;;;;4990405;28;20289;-76
2021/06/17 14:32:34;;;;;;;;;;;;;;;;;;4990221;28;20016;-77
2021/06/17 14:35:00;;;;;;;;;;;;;;;;;;4973816;28;19967;-77
2021/06/17 14:37:25;;;;;;;;;;;;;;;;;;4991209;28;20296;-77
2021/06/17 14:39:51;;;;;;;;;;;;;;;;;;4973687;28;19922;-77
2021/06/17 14:42:16;;;;;;;;;;;;;;;;;;4990149;28;20385;-77
2021/06/17 14:44:41;;;;;;;;;;;;;;;;;;4973595;28;19918;-77
2021/06/17 14:47:06;;;;;;;;;;;;;;;;;;4973482;28;19928;-77
2021/06/17 14:49:31;;;;;;;;;;;;;;;;;;4989634;28;19914;-76
2021/06/17 14:51:57;;;;;;;;;;;;;;;;;;4989787;28;19930;-77
2021/06/17 14:54:22;;;;;;;;;;;;;;;;;;4993695;28;19914;-75
2021/06/17 14:56:48;;;;;;;;;;;;;;;;;;4994455;28;20321;-75
2021/06/17 14:59:13;;;;;;;;;;;;;;;;;;4993315;28;19943;-75
2021/06/17 15:01:38;;;;;;;;;;;;;;;;;;4994495;28;19945;-75
2021/06/17 15:04:03;;;;;;;;;;;;;;;;;;5055037;23;20067;-82
2021/06/17 15:06:29;;;;;;;;;;;;;;;;;;5058757;28;19952;-81
2021/06/17 15:08:54;;;;;;;;;;;;;;;;;;5074559;28;19916;-82
2021/06/17 15:11:19;;;;;;;;;;;;;;;;;;5075816;28;19920;-81
2021/06/17 15:13:44;;;;;;;;;;;;;;;;;;5073161;28;19916;-79
2021/06/17 15:16:09;;;;;;;;;;;;;;;;;;5074361;28;20264;-79
2021/06/17 15:18:35;;;;;;;;;;;;;;;;;;5058394;28;19963;-79
2021/06/17 15:21:01;;;;;;;;;;;;;;;;;;5057771;28;22403;-79
2021/06/17 15:23:27;;;;;;;;;;;;;;;;;;5056192;28;19917;-79
2021/06/17 15:25:52;;;;;;;;;;;;;;;;;;5055825;28;20351;-79
2021/06/17 15:28:17;;;;;;;;;;;;;;;;;;5068423;28;20419;-79
2021/06/17 15:30:43;;;;;;;;;;;;;;;;;;5053518;28;19981;-78
2021/06/17 15:33:08;;;;;;;;;;;;;;;;;;5071105;28;19918;-78
2021/06/17 15:35:33;;;;;;;;;;;;;;;;;;5053256;28;20405;-79
2021/06/17 15:37:58;;;;;;;;;;;;;;;;;;5061470;28;19921;-79
2021/06/17 15:40:24;;;;;;;;;;;;;;;;;;5064130;28;20284;-79
2021/06/17 15:42:49;;;;;;;;;;;;;;;;;;5048072;28;20398;-79
2021/06/17 15:45:14;;;;;;;;;;;;;;;;;;5054852;28;19923;-79
2021/06/17 15:47:39;;;;;;;;;;;;;;;;;;5053383;28;19917;-80
2021/06/17 15:50:05;;;;;;;;;;;;;;;;;;5036343;28;20276;-79
2021/06/17 15:52:30;;;;;;;;;;;;;;;;;;5036510;28;20314;-76
2021/06/17 15:54:55;;;;;;;;;;;;;;;;;;5071320;28;19934;-80
2021/06/17 15:57:21;;;;;;;;;;;;;;;;;;5071359;28;20395;-80
2021/06/17 15:59:46;;;;;;;;;;;;;;;;;;5037812;28;20012;-79
2021/06/17 16:02:11;;;;;;;;;;;;;;;;;;5034717;28;19977;-79
2021/06/17 16:04:36;;;;;;;;;;;;;;;;;;5073457;28;19923;-79
2021/06/17 16:07:01;;;;;;;;;;;;;;;;;;5056492;28;19912;-79
2021/06/17 16:09:30;;;;;;;;;;;;;;;;;;5059820;28;19921;-79
2021/06/17 16:11:55;;;;;;;;;;;;;;;;;;5037156;28;20268;-81
2021/06/17 16:14:20;;;;;;;;;;;;;;;;;;5051610;28;19922;-82
2021/06/17 16:16:45;;;;;;;;;;;;;;;;;;5057178;28;20359;-82
2021/06/17 16:19:10;;;;;;;;;;;;;;;;;;5062893;28;20016;-82
2021/06/17 16:21:36;;;;;;;;;;;;;;;;;;5042290;28;19921;-82
2021/06/17 16:24:01;;;;;;;;;;;;;;;;;;5048603;28;19971;-82
2021/06/17 16:26:26;;;;;;;;;;;;;;;;;;5047481;28;19917;-82
2021/06/17 16:28:51;;;;;;;;;;;;;;;;;;5050721;28;19924;-82
2021/06/17 16:31:16;;;;;;;;;;;;;;;;;;5060462;28;19951;-82
2021/06/17 16:33:42;;;;;;;;;;;;;;;;;;5077378;28;19916;-81
2021/06/17 16:36:07;;;;;;;;;;;;;;;;;;5077266;28;19959;-82
2021/06/17 16:38:33;;;;;;;;;;;;;;;;;;5077049;28;19924;-82
2021/06/17 16:40:58;;;;;;;;;;;;;;;;;;5060418;28;19917;-82
2021/06/17 16:43:23;;;;;;;;;;;;;;;;;;5051302;28;20433;-82
2021/06/17 16:45:48;;;;;;;;;;;;;;;;;;5043473;28;19916;-82
2021/06/17 16:48:13;;;;;;;;;;;;;;;;;;5060232;28;20357;-82
2021/06/17 16:50:39;;;;;;;;;;;;;;;;;;5076176;28;19977;-82
2021/06/17 16:53:04;;;;;;;;;;;;;;;;;;5077270;28;19974;-82